createdAt,value
2018-02-19T00:00:09.337Z,58.00
2018-02-19T00:02:41.739Z,58.70
2018-02-19T00:05:09.256Z,58.10
2018-02-19T00:07:42.410Z,57.90
2018-02-19T00:10:10.185Z,57.90
2018-02-19T00:12:37.913Z,57.60
2018-02-19T00:15:06.915Z,58.40
2018-02-19T00:17:34.430Z,58.30
2018-02-19T00:20:03.645Z,58.90
2018-02-19T00:22:32.443Z,59.20
2018-02-19T00:25:00.872Z,59.40
2018-02-19T00:27:28.384Z,59.40
2018-02-19T00:29:56.793Z,59.80
2018-02-19T00:32:28.448Z,59.70
2018-02-19T00:34:55.990Z,59.20
2018-02-19T00:37:23.518Z,58.70
2018-02-19T00:39:51.044Z,59.40
2018-02-19T00:42:22.809Z,59.40
2018-02-19T00:44:50.347Z,59.50
2018-02-19T00:47:17.873Z,59.20
2018-02-19T00:49:46.282Z,59.70
2018-02-19T01:05:18.961Z,59.70
2018-02-19T01:07:46.484Z,63.00
2018-02-19T01:10:15.741Z,62.10
2018-02-19T01:12:43.257Z,62.00
2018-02-19T01:15:10.782Z,61.20
2018-02-19T01:17:38.481Z,61.30
2018-02-19T01:20:05.989Z,61.20
2018-02-19T01:22:33.520Z,60.90
2018-02-19T01:38:07.302Z,60.80
2018-02-19T01:40:34.834Z,63.30
2018-02-19T01:43:03.151Z,62.20
2018-02-19T01:45:30.686Z,62.20
2018-02-19T01:47:58.366Z,61.60
2018-02-19T01:50:25.896Z,61.50
2018-02-19T01:52:54.164Z,60.80
2018-02-19T01:55:22.488Z,60.40
2018-02-19T01:57:50.337Z,60.40
2018-02-19T02:00:17.865Z,60.10
2018-02-19T02:02:46.154Z,60.00
2018-02-19T02:05:14.697Z,60.00
2018-02-19T02:07:42.336Z,59.90
2018-02-19T02:10:09.846Z,60.00
2018-02-19T02:12:38.243Z,59.70
2018-02-19T02:15:06.521Z,59.30
2018-02-19T02:17:34.807Z,59.40
2018-02-19T02:20:03.459Z,59.40
2018-02-19T02:22:31.744Z,59.90
2018-02-19T02:25:00.049Z,60.20
2018-02-19T02:27:27.930Z,60.10
2018-02-19T02:29:55.523Z,60.20
2018-02-19T02:32:23.616Z,60.00
2018-02-19T02:34:51.887Z,59.40
2018-02-19T02:37:20.400Z,59.70
2018-02-19T02:39:48.700Z,59.50
2018-02-19T02:42:16.254Z,59.50
2018-02-19T02:44:44.184Z,59.00
2018-02-19T02:47:17.277Z,59.00
2018-02-19T02:49:46.620Z,59.20
2018-02-19T02:52:18.379Z,59.20
2018-02-19T02:54:51.061Z,59.10
2018-02-19T02:57:18.605Z,59.50
2018-02-19T02:59:46.555Z,59.50
2018-02-19T03:02:14.961Z,59.20
2018-02-19T03:04:43.152Z,59.20
2018-02-19T03:07:10.786Z,59.00
2018-02-19T03:09:38.306Z,58.60
2018-02-19T03:12:06.405Z,59.00
2018-02-19T03:14:33.957Z,59.40
2018-02-19T03:17:02.365Z,59.70
2018-02-19T03:19:29.897Z,59.70
2018-02-19T03:21:58.172Z,60.30
2018-02-19T03:24:26.484Z,61.00
2018-02-19T03:26:53.983Z,61.00
2018-02-19T03:29:22.322Z,61.40
2018-02-19T03:31:49.849Z,61.00
2018-02-19T03:34:18.198Z,60.30
2018-02-19T03:36:45.719Z,60.30
2018-02-19T03:39:17.286Z,60.00
2018-02-19T03:41:44.961Z,59.70
2018-02-19T03:44:12.525Z,59.70
2018-02-19T03:46:40.328Z,59.90
2018-02-19T03:49:09.838Z,60.80
2018-02-19T03:51:38.251Z,60.60
2018-02-19T03:54:09.859Z,60.50
2018-02-19T03:56:38.873Z,60.30
2018-02-19T03:59:07.282Z,61.00
2018-02-19T04:01:34.948Z,61.00
2018-02-19T04:04:02.474Z,60.60
2018-02-19T04:06:30.786Z,60.80
2018-02-19T04:08:58.443Z,60.70
2018-02-19T04:11:25.961Z,61.10
2018-02-19T04:13:58.463Z,61.10
2018-02-19T04:16:26.032Z,61.10
2018-02-19T04:18:53.562Z,60.50
2018-02-19T04:21:23.308Z,60.80
2018-02-19T04:23:50.835Z,60.70
2018-02-19T04:26:19.117Z,61.20
2018-02-19T04:28:47.554Z,60.90
2018-02-19T04:31:15.148Z,60.90
2018-02-19T04:33:43.451Z,61.20
2018-02-19T04:36:11.305Z,61.10
2018-02-19T04:38:39.711Z,60.90
2018-02-19T04:41:07.248Z,60.90
2018-02-19T04:43:34.777Z,60.70
2018-02-19T04:49:00.992Z,60.20
2018-02-19T04:51:28.691Z,60.20
2018-02-19T04:53:56.210Z,59.90
2018-02-19T04:56:23.746Z,60.10
2018-02-19T04:58:51.271Z,60.10
2018-02-19T05:01:18.796Z,60.20
2018-02-19T05:03:46.443Z,60.10
2018-02-19T05:06:13.999Z,59.90
2018-02-19T05:08:41.617Z,59.90
2018-02-19T05:11:09.161Z,59.90
2018-02-19T05:13:36.789Z,60.70
2018-02-19T05:16:04.433Z,60.00
2018-02-19T05:18:31.993Z,60.10
2018-02-19T05:21:00.477Z,59.80
2018-02-19T05:23:28.000Z,59.80
2018-02-19T05:25:55.552Z,59.90
2018-02-19T05:28:23.066Z,59.80
2018-02-19T05:30:50.590Z,59.80
2018-02-19T05:33:18.883Z,60.00
2018-02-19T05:35:46.397Z,60.00
2018-02-19T05:38:13.921Z,60.10
2018-02-19T05:40:41.432Z,60.20
2018-02-19T05:43:09.045Z,60.00
2018-02-19T05:45:36.554Z,60.40
2018-02-19T05:48:04.086Z,60.20
2018-02-19T05:50:31.608Z,60.20
2018-02-19T05:52:59.251Z,60.60
2018-02-19T05:55:27.536Z,61.80
2018-02-19T05:57:55.225Z,61.70
2018-02-19T06:00:22.901Z,61.50
2018-02-19T06:02:50.403Z,61.20
2018-02-19T06:05:19.488Z,62.10
2018-02-19T06:07:47.082Z,62.10
2018-02-19T06:10:18.944Z,61.60
2018-02-19T06:12:46.877Z,62.10
2018-02-19T06:15:14.388Z,61.20
2018-02-19T06:17:42.464Z,61.20
2018-02-19T06:20:13.625Z,61.70
2018-02-19T06:22:41.165Z,62.40
2018-02-19T06:25:08.677Z,62.10
2018-02-19T06:27:41.297Z,62.20
2018-02-19T06:30:09.362Z,61.60
2018-02-19T06:32:36.870Z,62.10
2018-02-19T06:35:05.008Z,62.00
2018-02-19T06:37:32.596Z,61.40
2018-02-19T06:40:00.103Z,61.70
2018-02-19T06:42:27.658Z,61.50
2018-02-19T06:44:55.940Z,61.40
2018-02-19T06:47:23.462Z,61.40
2018-02-19T06:49:50.964Z,61.80
2018-02-19T06:52:18.545Z,61.60
2018-02-19T06:54:46.076Z,61.90
2018-02-19T06:57:14.352Z,62.00
2018-02-19T06:59:42.753Z,61.80
2018-02-19T07:02:10.383Z,61.80
2018-02-19T07:04:38.782Z,61.00
2018-02-19T07:07:06.317Z,61.00
2018-02-19T07:09:34.633Z,62.50
2018-02-19T07:12:02.190Z,61.80
2018-02-19T07:14:30.357Z,62.00
2018-02-19T07:16:57.886Z,61.70
2018-02-19T07:19:26.737Z,61.70
2018-02-19T07:21:54.275Z,61.70
2018-02-19T07:24:21.792Z,61.40
2018-02-19T07:26:49.318Z,61.50
2018-02-19T07:29:17.312Z,61.00
2018-02-19T07:31:44.919Z,60.90
2018-02-19T07:34:12.466Z,60.10
2018-02-19T07:36:40.047Z,60.10
2018-02-19T07:39:07.605Z,59.60
2018-02-19T07:41:35.123Z,59.90
2018-02-19T07:44:02.644Z,59.70
2018-02-19T07:46:30.179Z,60.00
2018-02-19T07:48:58.576Z,59.90
2018-02-19T07:51:26.100Z,60.00
2018-02-19T07:53:53.621Z,59.80
2018-02-19T07:56:21.235Z,60.30
2018-02-19T07:58:48.743Z,60.60
2018-02-19T08:01:16.348Z,61.00
2018-02-19T08:03:43.849Z,61.40
2018-02-19T08:06:11.352Z,61.30
2018-02-19T08:08:39.973Z,60.30
2018-02-19T08:11:07.512Z,60.30
2018-02-19T08:13:35.290Z,60.70
2018-02-19T08:16:02.861Z,60.00
2018-02-19T08:18:30.522Z,59.60
2018-02-19T08:20:58.074Z,58.70
2018-02-19T08:23:25.595Z,58.90
2018-02-19T08:25:53.928Z,59.00
2018-02-19T08:28:21.617Z,59.00
2018-02-19T08:30:49.335Z,58.30
2018-02-19T08:33:16.909Z,57.50
2018-02-19T08:35:45.482Z,57.90
2018-02-19T08:38:13.039Z,57.30
2018-02-19T08:40:40.547Z,57.70
2018-02-19T08:43:08.932Z,57.80
2018-02-19T08:45:37.948Z,58.10
2018-02-19T08:48:06.249Z,58.00
2018-02-19T08:50:33.828Z,57.90
2018-02-19T08:53:01.380Z,58.60
2018-02-19T08:55:28.903Z,58.20
2018-02-19T08:57:57.197Z,57.10
2018-02-19T09:00:24.717Z,57.10
2018-02-19T09:02:53.045Z,56.30
2018-02-19T09:05:20.571Z,56.30
2018-02-19T09:07:49.037Z,57.40
2018-02-19T09:10:16.757Z,57.30
2018-02-19T09:12:44.270Z,57.10
2018-02-19T09:15:14.035Z,56.20
2018-02-19T09:17:41.614Z,56.20
2018-02-19T09:20:09.138Z,56.80
2018-02-19T09:22:37.498Z,55.90
2018-02-19T09:25:05.225Z,55.00
2018-02-19T09:27:34.284Z,55.00
2018-02-19T09:30:01.913Z,54.90
2018-02-19T09:35:22.328Z,54.20
2018-02-19T09:37:49.913Z,54.20
2018-02-19T09:40:17.489Z,54.30
2018-02-19T09:42:45.036Z,53.60
2018-02-19T09:45:12.570Z,52.50
2018-02-19T09:47:41.802Z,53.70
2018-02-19T09:50:09.445Z,53.70
2018-02-19T09:52:36.989Z,52.90
2018-02-19T09:55:05.357Z,52.90
2018-02-19T09:57:32.876Z,52.80
2018-02-19T10:00:00.405Z,53.10
2018-02-19T10:02:27.968Z,53.70
2018-02-19T10:04:55.497Z,54.90
2018-02-19T10:07:23.818Z,54.00
2018-02-19T10:09:51.369Z,54.00
2018-02-19T10:12:18.926Z,54.60
2018-02-19T10:14:46.457Z,55.70
2018-02-19T10:17:14.782Z,55.80
2018-02-19T10:19:43.079Z,55.80
2018-02-19T10:22:11.319Z,55.90
2018-02-19T10:24:38.820Z,55.40
2018-02-19T10:27:52.382Z,54.60
2018-02-19T10:30:20.749Z,54.40
2018-02-19T10:32:48.231Z,54.40
2018-02-19T10:35:21.018Z,55.20
2018-02-19T10:37:49.214Z,55.20
2018-02-19T10:40:16.786Z,55.00
2018-02-19T10:42:44.338Z,55.00
2018-02-19T10:45:11.908Z,54.90
2018-02-19T10:47:39.554Z,55.00
2018-02-19T10:50:07.140Z,54.90
2018-02-19T10:52:34.641Z,53.90
2018-02-19T10:55:02.200Z,54.50
2018-02-19T10:57:29.741Z,54.50
2018-02-19T10:59:57.269Z,53.80
2018-02-19T11:02:24.893Z,53.70
2018-02-19T11:07:27.418Z,52.80
2018-02-19T11:09:54.956Z,52.80
2018-02-19T11:12:22.477Z,52.30
2018-02-19T11:14:50.410Z,51.50
2018-02-19T11:17:17.957Z,51.70
2018-02-19T11:19:45.493Z,52.00
2018-02-19T11:22:13.810Z,50.40
2018-02-19T11:24:41.342Z,50.40
2018-02-19T11:27:10.143Z,49.80
2018-02-19T11:29:37.705Z,49.20
2018-02-19T11:32:05.245Z,48.80
2018-02-19T11:34:32.833Z,49.20
2018-02-19T11:37:00.378Z,49.40
2018-02-19T11:39:28.428Z,49.90
2018-02-19T11:41:56.715Z,48.30
2018-02-19T11:44:24.248Z,48.30
2018-02-19T11:46:53.240Z,46.90
2018-02-19T11:49:20.917Z,46.90
2018-02-19T11:51:49.210Z,44.80
2018-02-19T11:54:16.847Z,44.70
2018-02-19T11:56:45.283Z,45.40
2018-02-19T11:59:12.791Z,45.40
2018-02-19T12:01:41.192Z,45.90
2018-02-19T12:04:09.313Z,45.90
2018-02-19T12:06:36.838Z,45.60
2018-02-19T12:09:04.467Z,45.70
2018-02-19T12:11:32.741Z,46.60
2018-02-19T12:14:06.901Z,46.60
2018-02-19T12:16:35.218Z,46.60
2018-02-19T12:19:03.646Z,46.00
2018-02-19T12:21:31.333Z,46.00
2018-02-19T12:24:02.938Z,47.50
2018-02-19T12:26:31.827Z,47.80
2018-02-19T12:29:00.145Z,47.20
2018-02-19T12:31:27.793Z,47.20
2018-02-19T12:33:55.342Z,48.10
2018-02-19T12:36:22.887Z,47.70
2018-02-19T12:38:52.160Z,47.50
2018-02-19T12:41:19.705Z,47.50
2018-02-19T12:43:51.518Z,46.30
2018-02-19T12:46:22.984Z,45.20
2018-02-19T12:48:51.161Z,45.30
2018-02-19T12:59:38.817Z,46.10
2018-02-19T13:02:07.130Z,46.20
2018-02-19T13:04:35.538Z,46.10
2018-02-19T13:07:03.074Z,45.80
2018-02-19T13:09:31.041Z,46.40
2018-02-19T13:11:59.144Z,45.70
2018-02-19T13:14:30.710Z,44.60
2018-02-19T13:16:58.221Z,43.20
2018-02-19T13:19:26.804Z,43.00
2018-02-19T13:21:58.236Z,43.50
2018-02-19T13:24:25.788Z,44.20
2018-02-19T13:26:54.073Z,44.90
2018-02-19T13:29:22.495Z,44.90
2018-02-19T13:31:50.937Z,43.40
2018-02-19T13:34:18.524Z,43.10
2018-02-19T13:36:46.084Z,44.20
2018-02-19T13:39:13.940Z,44.70
2018-02-19T13:41:41.519Z,44.10
2018-02-19T13:44:09.045Z,42.80
2018-02-19T13:46:36.713Z,43.80
2018-02-19T13:49:04.247Z,44.40
2018-02-19T13:51:32.577Z,42.80
2018-02-19T13:54:00.427Z,42.80
2018-02-19T13:56:27.968Z,43.90
2018-02-19T13:58:57.062Z,45.00
2018-02-19T14:01:26.153Z,44.70
2018-02-19T14:03:54.432Z,45.50
2018-02-19T14:06:22.746Z,46.20
2018-02-19T14:08:50.306Z,46.10
2018-02-19T14:11:17.876Z,46.00
2018-02-19T14:13:45.477Z,46.20
2018-02-19T14:16:13.754Z,47.10
2018-02-19T14:18:42.139Z,47.20
2018-02-19T14:21:10.470Z,46.80
2018-02-19T14:23:38.008Z,46.70
2018-02-19T14:26:05.573Z,46.50
2018-02-19T14:28:37.752Z,47.20
2018-02-19T14:31:05.297Z,47.40
2018-02-19T14:33:32.869Z,48.00
2018-02-19T14:36:00.348Z,47.20
2018-02-19T14:38:28.845Z,47.00
2018-02-19T14:40:57.875Z,46.50
2018-02-19T14:43:25.387Z,46.50
2018-02-19T14:45:53.029Z,47.00
2018-02-19T14:48:20.570Z,46.70
2018-02-19T14:50:52.031Z,47.30
2018-02-19T14:53:21.050Z,45.50
2018-02-19T14:55:49.361Z,46.10
2018-02-19T14:58:17.661Z,48.10
2018-02-19T15:00:45.181Z,48.10
2018-02-19T15:03:13.266Z,48.80
2018-02-19T15:05:42.023Z,47.90
2018-02-19T15:08:09.558Z,47.80
2018-02-19T15:10:37.090Z,46.90
2018-02-19T15:13:05.386Z,46.30
2018-02-19T15:15:32.919Z,46.30
2018-02-19T15:18:01.412Z,45.60
2018-02-19T15:20:29.712Z,45.60
2018-02-19T15:22:58.572Z,45.90
2018-02-19T15:25:26.991Z,45.80
2018-02-19T15:27:54.560Z,45.80
2018-02-19T15:30:22.110Z,46.50
2018-02-19T15:32:50.719Z,47.10
2018-02-19T15:35:19.009Z,46.40
2018-02-19T15:37:46.949Z,46.40
2018-02-19T15:40:14.511Z,46.40
2018-02-19T15:42:42.073Z,47.30
2018-02-19T15:45:09.585Z,47.40
2018-02-19T15:47:37.904Z,47.40
2018-02-19T15:50:05.453Z,48.00
2018-02-19T15:52:33.017Z,46.60
2018-02-19T15:55:00.595Z,47.70
2018-02-19T15:57:28.461Z,48.00
2018-02-19T15:59:56.015Z,47.90
2018-02-19T16:02:23.584Z,49.30
2018-02-19T16:04:51.542Z,48.60
2018-02-19T16:07:19.185Z,48.70
2018-02-19T16:09:46.742Z,48.50
2018-02-19T16:12:14.291Z,48.90
2018-02-19T16:14:41.889Z,48.80
2018-02-19T16:17:09.537Z,49.20
2018-02-19T16:19:37.090Z,49.30
2018-02-19T16:22:04.936Z,49.30
2018-02-19T16:24:32.468Z,49.60
2018-02-19T16:27:00.389Z,49.40
2018-02-19T16:29:28.410Z,49.70
2018-02-19T16:31:57.558Z,49.00
2018-02-19T16:34:27.228Z,48.90
2018-02-19T16:36:55.892Z,49.50
2018-02-19T16:39:24.222Z,49.60
2018-02-19T16:41:55.646Z,49.50
2018-02-19T16:44:28.257Z,49.40
2018-02-19T16:46:59.782Z,49.30
2018-02-19T16:49:28.428Z,50.50
2018-02-19T16:51:56.400Z,50.40
2018-02-19T16:54:23.923Z,50.40
2018-02-19T16:56:51.470Z,50.30
2018-02-19T16:59:19.901Z,50.20
2018-02-19T17:01:48.323Z,50.70
2018-02-19T17:04:16.730Z,50.50
2018-02-19T17:06:49.026Z,50.20
2018-02-19T17:09:16.580Z,50.40
2018-02-19T17:11:44.132Z,50.30
2018-02-19T17:14:11.636Z,50.30
2018-02-19T17:16:40.558Z,50.40
2018-02-19T17:19:08.238Z,50.40
2018-02-19T17:21:37.725Z,50.60
2018-02-19T17:24:05.423Z,50.70
2018-02-19T17:26:33.598Z,51.00
2018-02-19T17:29:01.315Z,51.00
2018-02-19T17:31:28.842Z,51.20
2018-02-19T17:33:57.047Z,51.60
2018-02-19T17:36:24.590Z,51.70
2018-02-19T17:38:52.240Z,51.70
2018-02-19T17:41:19.795Z,52.10
2018-02-19T17:43:47.315Z,52.30
2018-02-19T17:46:14.888Z,52.20
2018-02-19T17:48:46.436Z,52.20
2018-02-19T17:51:14.825Z,53.10
2018-02-19T17:53:42.466Z,53.00
2018-02-19T17:56:10.005Z,53.80
2018-02-19T17:58:37.558Z,53.90
2018-02-19T18:01:05.946Z,53.40
2018-02-19T18:03:34.750Z,53.30
2018-02-19T18:06:03.968Z,53.70
2018-02-19T18:08:31.818Z,53.90
2018-02-19T18:10:59.339Z,53.70
2018-02-19T18:13:31.274Z,53.90
2018-02-19T18:16:04.857Z,53.90
2018-02-19T18:18:32.393Z,53.80
2018-02-19T18:21:00.262Z,53.70
2018-02-19T18:23:29.257Z,53.70
2018-02-19T18:26:00.808Z,53.70
2018-02-19T18:28:28.372Z,53.50
2018-02-19T18:31:04.788Z,53.10
2018-02-19T18:33:32.368Z,53.30
2018-02-19T18:36:00.684Z,54.00
2018-02-19T18:38:28.228Z,53.90
2018-02-19T18:40:55.780Z,54.10
2018-02-19T18:43:24.137Z,54.50
2018-02-19T18:45:54.272Z,54.30
2018-02-19T18:48:22.571Z,54.20
2018-02-19T18:50:50.681Z,54.20
2018-02-19T18:53:18.205Z,54.00
2018-02-19T18:55:53.481Z,54.00
2018-02-19T18:58:21.023Z,54.10
2018-02-19T19:00:48.978Z,53.60
2018-02-19T19:03:16.521Z,53.50
2018-02-19T19:05:48.276Z,53.70
2018-02-19T19:18:11.040Z,55.90
2018-02-19T19:20:38.695Z,55.90
2018-02-19T19:23:10.130Z,56.00
2018-02-19T19:25:38.205Z,55.70
2018-02-19T19:28:09.856Z,55.10
2018-02-19T19:30:37.587Z,55.40
2018-02-19T19:33:06.614Z,55.10
2018-02-19T19:35:34.228Z,55.10
2018-02-19T19:38:06.552Z,55.10
2018-02-19T19:40:36.433Z,54.90
2018-02-19T19:43:05.704Z,55.50
2018-02-19T19:45:33.332Z,55.50
2018-02-19T19:48:00.863Z,55.70
2018-02-19T19:50:28.397Z,55.60
2018-02-19T19:52:58.843Z,55.80
2018-02-19T19:55:28.680Z,55.20
2018-02-19T19:57:56.216Z,55.10
2018-02-19T20:00:25.130Z,55.30
2018-02-19T20:02:52.669Z,55.30
2018-02-19T20:05:21.859Z,55.40
2018-02-19T20:07:50.178Z,56.00
2018-02-19T20:10:18.238Z,55.80
2018-02-19T20:12:47.131Z,56.00
2018-02-19T20:15:14.644Z,56.00
2018-02-19T20:17:42.170Z,56.30
2018-02-19T20:22:14.045Z,55.70
2018-02-19T20:24:41.712Z,55.90
2018-02-19T20:27:10.393Z,56.30
2018-02-19T20:29:38.049Z,55.70
2018-02-19T20:32:05.609Z,55.90
2018-02-19T20:34:33.176Z,56.00
2018-02-19T20:37:01.176Z,56.90
2018-02-19T20:39:28.731Z,56.20
2018-02-19T20:41:56.346Z,56.20
2018-02-19T20:44:23.937Z,56.30
2018-02-19T20:46:51.577Z,56.20
2018-02-19T20:49:19.103Z,56.10
2018-02-19T20:51:47.415Z,56.00
2018-02-19T20:54:14.962Z,56.00
2018-02-19T20:56:43.260Z,56.20
2018-02-19T21:09:00.840Z,56.20
2018-02-19T21:11:28.407Z,59.00
2018-02-19T21:13:55.937Z,58.90
2018-02-19T21:16:23.497Z,58.90
2018-02-19T21:18:55.722Z,58.00
2018-02-19T21:21:23.454Z,58.20
2018-02-19T21:23:51.098Z,57.20
2018-02-19T21:26:18.777Z,57.50
2018-02-19T21:28:46.476Z,57.20
2018-02-19T21:31:14.121Z,57.60
2018-02-19T21:33:42.286Z,58.30
2018-02-19T21:36:09.884Z,58.60
2018-02-19T21:38:37.478Z,58.50
2018-02-19T21:41:09.947Z,58.40
2018-02-19T21:43:38.253Z,58.50
2018-02-19T21:46:05.786Z,59.00
2018-02-19T21:48:34.920Z,58.70
2018-02-19T21:51:02.451Z,58.70
2018-02-19T21:53:29.973Z,58.60
2018-02-19T21:55:59.101Z,58.80
2018-02-19T21:58:27.425Z,58.80
2018-02-19T22:00:54.942Z,58.80
2018-02-19T22:03:22.478Z,58.70
2018-02-19T22:05:50.762Z,58.70
2018-02-19T22:08:19.125Z,59.00
2018-02-19T22:10:47.007Z,58.90
2018-02-19T22:13:15.752Z,58.90
2018-02-19T22:15:43.288Z,58.90
2018-02-19T22:18:10.849Z,58.80
2018-02-19T22:20:38.510Z,58.70
2018-02-19T22:23:06.229Z,58.50
2018-02-19T22:25:33.731Z,59.10
2018-02-19T22:28:01.250Z,59.10
2018-02-19T22:30:28.881Z,58.90
2018-02-19T22:32:57.752Z,59.40
2018-02-19T22:35:25.264Z,59.40
2018-02-19T22:37:53.899Z,59.60
2018-02-19T22:40:21.449Z,59.60
2018-02-19T22:42:49.125Z,59.80
2018-02-19T22:45:16.628Z,60.00
2018-02-19T23:00:44.484Z,59.80
2018-02-19T23:03:16.151Z,63.50
2018-02-19T23:05:44.638Z,62.60
2018-02-19T23:08:12.924Z,62.80
2018-02-19T23:10:40.620Z,62.10
2018-02-19T23:13:08.478Z,61.60
2018-02-19T23:15:36.034Z,61.20
2018-02-19T23:18:03.562Z,60.60
2018-02-19T23:20:31.935Z,60.10
2018-02-19T23:23:00.359Z,60.50
2018-02-19T23:25:28.940Z,60.50
2018-02-19T23:27:57.137Z,60.90
2018-02-19T23:30:24.682Z,61.20
2018-02-19T23:32:52.234Z,60.80
2018-02-19T23:35:25.814Z,60.70
2018-02-19T23:37:54.319Z,60.90
2018-02-19T23:40:21.843Z,61.10
2018-02-19T23:42:51.126Z,61.10
2018-02-19T23:45:19.281Z,61.00
2018-02-19T23:47:48.423Z,61.40
2018-02-19T23:50:16.936Z,62.20
2018-02-19T23:52:48.586Z,62.20
2018-02-19T23:55:16.150Z,62.10
2018-02-19T23:57:44.297Z,62.10
